createdAt,value
2023-01-27T00:00:56.345Z,9.69
2023-01-27T00:03:24.606Z,7.44
2023-01-27T00:05:52.460Z,6.42
2023-01-27T00:08:19.878Z,6.09
2023-01-27T00:11:07.476Z,6.20
2023-01-27T00:13:34.929Z,6.40
2023-01-27T00:16:02.679Z,6.13
2023-01-27T00:18:30.098Z,6.39
2023-01-27T00:21:15.875Z,5.30
2023-01-27T00:24:02.397Z,6.33
2023-01-27T00:26:29.833Z,7.31
2023-01-27T00:28:57.675Z,5.83
2023-01-27T00:31:43.857Z,5.46
2023-01-27T00:34:11.727Z,4.81
2023-01-27T00:36:41.184Z,4.11
2023-01-27T00:39:10.055Z,4.65
2023-01-27T00:41:38.575Z,5.78
2023-01-27T00:44:06.729Z,4.60
2023-01-27T00:46:34.763Z,5.81
2023-01-27T00:49:02.569Z,6.01
2023-01-27T00:51:31.179Z,6.24
2023-01-27T00:53:59.329Z,7.38
2023-01-27T00:56:28.226Z,8.51
2023-01-27T00:58:55.924Z,8.62
2023-01-27T01:01:23.865Z,9.00
2023-01-27T01:03:52.980Z,10.64
2023-01-27T01:06:23.526Z,11.13
2023-01-27T01:08:53.456Z,10.42
2023-01-27T01:11:21.761Z,10.00
2023-01-27T01:13:49.281Z,9.27
2023-01-27T01:16:22.944Z,8.96
2023-01-27T01:18:50.772Z,8.91
2023-01-27T01:21:18.157Z,9.38
2023-01-27T01:23:46.735Z,9.64
2023-01-27T01:26:15.920Z,8.65
2023-01-27T01:28:44.608Z,8.87
2023-01-27T01:31:15.765Z,10.22
2023-01-27T01:33:43.686Z,10.20
2023-01-27T01:36:13.346Z,10.96
2023-01-27T01:38:40.851Z,11.11
2023-01-27T01:41:12.052Z,11.10
2023-01-27T01:43:41.711Z,12.39
2023-01-27T01:46:10.784Z,11.66
2023-01-27T01:48:59.346Z,10.99
2023-01-27T01:51:32.900Z,11.25
2023-01-27T01:54:15.486Z,11.30
2023-01-27T01:56:51.085Z,11.51
2023-01-27T01:59:32.746Z,11.08
2023-01-27T02:02:04.200Z,11.35
2023-01-27T02:04:38.885Z,11.49
2023-01-27T02:07:30.867Z,11.19
2023-01-27T02:09:58.681Z,11.26
2023-01-27T02:12:26.283Z,10.90
2023-01-27T02:14:54.090Z,10.78
2023-01-27T02:17:22.242Z,11.65
2023-01-27T02:19:59.264Z,11.59
2023-01-27T02:22:57.465Z,12.09
2023-01-27T02:25:37.032Z,10.27
2023-01-27T02:28:07.491Z,9.84
2023-01-27T02:30:35.285Z,11.35
2023-01-27T02:33:12.714Z,11.26
2023-01-27T02:36:01.830Z,11.43
2023-01-27T02:38:34.499Z,11.05
2023-01-27T02:41:27.079Z,10.74
2023-01-27T02:43:54.802Z,10.27
2023-01-27T02:46:23.085Z,9.42
2023-01-27T02:48:50.570Z,7.25
2023-01-27T02:51:18.619Z,8.40
2023-01-27T02:53:47.283Z,7.82
2023-01-27T02:56:14.686Z,7.07
2023-01-27T02:58:42.594Z,7.52
2023-01-27T03:01:11.447Z,7.53
2023-01-27T03:03:44.119Z,8.32
2023-01-27T03:06:12.003Z,9.06
2023-01-27T03:08:39.495Z,7.03
2023-01-27T03:11:07.959Z,7.20
2023-01-27T03:13:37.891Z,8.06
2023-01-27T03:16:24.840Z,8.91
2023-01-27T03:18:56.596Z,7.76
2023-01-27T03:21:24.450Z,8.20
2023-01-27T03:23:52.269Z,7.73
2023-01-27T03:26:21.566Z,8.37
2023-01-27T03:29:09.419Z,7.27
2023-01-27T03:31:38.489Z,7.11
2023-01-27T03:34:06.325Z,7.33
2023-01-27T03:36:52.904Z,7.13
2023-01-27T03:39:42.254Z,7.41
2023-01-27T03:42:28.250Z,7.06
2023-01-27T03:45:14.977Z,7.03
2023-01-27T03:47:42.540Z,7.59
2023-01-27T03:50:19.284Z,7.72
2023-01-27T03:53:03.204Z,7.26
2023-01-27T03:55:32.187Z,7.95
2023-01-27T03:58:14.776Z,7.44
2023-01-27T04:00:42.765Z,8.11
2023-01-27T04:03:29.902Z,6.27
2023-01-27T04:06:16.104Z,6.55
2023-01-27T04:08:43.851Z,6.44
2023-01-27T04:11:31.752Z,6.41
2023-01-27T04:14:06.419Z,6.65
2023-01-27T04:16:34.509Z,6.23
2023-01-27T04:19:03.770Z,5.39
2023-01-27T04:21:31.179Z,5.31
2023-01-27T04:23:59.138Z,6.13
2023-01-27T04:26:33.088Z,4.86
2023-01-27T04:29:04.422Z,5.27
2023-01-27T04:31:32.724Z,4.64
2023-01-27T04:34:00.441Z,4.81
2023-01-27T04:36:27.834Z,5.68
2023-01-27T04:38:55.521Z,5.63
2023-01-27T04:41:22.910Z,5.26
2023-01-27T04:43:50.380Z,4.80
2023-01-27T04:46:18.331Z,4.83
2023-01-27T04:48:45.891Z,5.43
2023-01-27T04:51:13.291Z,4.50
2023-01-27T04:53:40.974Z,3.95
2023-01-27T04:56:20.985Z,4.65
2023-01-27T04:58:49.116Z,5.75
2023-01-27T05:01:16.688Z,6.06
2023-01-27T05:03:44.085Z,4.86
2023-01-27T05:06:12.461Z,4.89
2023-01-27T05:08:39.873Z,6.03
2023-01-27T05:11:07.487Z,5.09
2023-01-27T05:13:35.343Z,5.32
2023-01-27T05:16:14.274Z,6.02
2023-01-27T05:18:43.109Z,5.41
2023-01-27T05:21:14.193Z,6.73
2023-01-27T05:23:41.869Z,6.29
2023-01-27T05:26:20.823Z,7.51
2023-01-27T05:28:49.767Z,7.72
2023-01-27T05:31:22.478Z,6.25
2023-01-27T05:33:52.368Z,7.77
2023-01-27T05:36:21.855Z,7.14
2023-01-27T05:38:49.523Z,6.99
2023-01-27T05:41:18.546Z,7.49
2023-01-27T05:43:47.455Z,8.34
2023-01-27T05:46:16.953Z,7.76
2023-01-27T05:48:47.667Z,7.91
2023-01-27T05:51:16.540Z,8.19
2023-01-27T05:53:44.537Z,8.22
2023-01-27T05:56:19.120Z,8.15
2023-01-27T05:58:46.586Z,8.72
2023-01-27T06:01:21.343Z,7.86
2023-01-27T06:03:49.572Z,4.95
2023-01-27T06:06:19.203Z,3.37
2023-01-27T06:08:47.415Z,2.25
2023-01-27T06:11:15.877Z,2.70
2023-01-27T06:13:43.533Z,2.29
2023-01-27T06:16:13.133Z,2.63
2023-01-27T06:18:41.233Z,2.46
2023-01-27T06:21:10.208Z,2.43
2023-01-27T06:23:38.120Z,2.84
2023-01-27T06:26:10.584Z,4.85
2023-01-27T06:28:38.838Z,2.27
2023-01-27T06:31:16.294Z,3.39
2023-01-27T06:33:43.937Z,3.43
2023-01-27T06:36:14.137Z,3.48
2023-01-27T06:38:42.206Z,4.08
2023-01-27T06:41:09.965Z,2.47
2023-01-27T06:43:37.938Z,1.92
2023-01-27T06:46:06.318Z,1.75
2023-01-27T06:48:33.980Z,1.98
2023-01-27T06:51:01.764Z,4.53
2023-01-27T06:53:29.484Z,2.07
2023-01-27T06:55:58.858Z,3.88
2023-01-27T06:58:26.959Z,4.30
2023-01-27T07:00:55.174Z,6.11
2023-01-27T07:03:22.838Z,7.01
2023-01-27T07:05:50.711Z,4.73
2023-01-27T07:08:18.171Z,5.30
2023-01-27T07:10:45.839Z,6.87
2023-01-27T07:13:14.496Z,5.27
2023-01-27T07:15:42.331Z,5.69
2023-01-27T07:18:11.341Z,4.62
2023-01-27T07:20:41.041Z,4.51
2023-01-27T07:23:09.596Z,5.40
2023-01-27T07:25:37.539Z,5.49
2023-01-27T07:28:05.762Z,5.48
2023-01-27T07:30:34.230Z,5.97
2023-01-27T07:33:09.749Z,5.76
2023-01-27T07:35:38.674Z,5.28
2023-01-27T07:38:06.923Z,5.53
2023-01-27T07:40:35.711Z,4.59
2023-01-27T07:43:03.960Z,5.11
2023-01-27T07:45:34.189Z,5.47
2023-01-27T07:48:02.818Z,5.70
2023-01-27T07:50:30.679Z,5.56
2023-01-27T07:53:02.131Z,5.94
2023-01-27T07:55:30.563Z,4.97
2023-01-27T07:57:58.525Z,6.29
2023-01-27T08:00:28.193Z,6.10
2023-01-27T08:02:56.923Z,5.63
2023-01-27T08:05:25.243Z,6.42
2023-01-27T08:07:58.613Z,6.37
2023-01-27T08:10:26.902Z,6.02
2023-01-27T08:12:54.672Z,6.99
2023-01-27T08:15:22.803Z,7.58
2023-01-27T08:17:59.994Z,7.33
2023-01-27T08:20:27.881Z,7.13
2023-01-27T08:22:55.955Z,7.64
2023-01-27T08:25:23.964Z,7.79
2023-01-27T08:27:52.416Z,7.77
2023-01-27T08:30:20.719Z,7.08
2023-01-27T08:32:48.618Z,7.14
2023-01-27T08:35:16.344Z,7.61
2023-01-27T08:37:44.285Z,7.58
2023-01-27T08:40:12.605Z,7.93
2023-01-27T08:42:40.523Z,7.58
2023-01-27T08:45:11.640Z,7.38
2023-01-27T08:47:39.112Z,8.39
2023-01-27T08:50:08.251Z,8.32
2023-01-27T08:52:36.009Z,7.79
2023-01-27T08:55:03.654Z,8.38
2023-01-27T08:57:32.717Z,8.87
2023-01-27T09:00:00.935Z,8.59
2023-01-27T09:02:28.374Z,9.37
2023-01-27T09:04:55.842Z,9.80
2023-01-27T09:07:23.592Z,8.84
2023-01-27T09:09:55.984Z,9.10
2023-01-27T09:12:28.972Z,9.00
2023-01-27T09:14:58.270Z,8.79
2023-01-27T09:17:25.800Z,9.44
2023-01-27T09:19:53.525Z,8.88
2023-01-27T09:22:20.957Z,8.83
2023-01-27T09:24:48.370Z,8.81
2023-01-27T09:27:18.101Z,7.71
2023-01-27T09:29:46.626Z,7.40
2023-01-27T09:32:14.029Z,8.93
2023-01-27T09:34:43.995Z,9.00
2023-01-27T09:37:13.241Z,7.24
2023-01-27T09:39:46.205Z,6.96
2023-01-27T09:42:25.658Z,6.36
2023-01-27T09:45:15.305Z,6.73
2023-01-27T09:47:49.312Z,7.05
2023-01-27T09:50:25.770Z,7.68
2023-01-27T09:53:14.217Z,6.72
2023-01-27T09:55:49.977Z,7.38
2023-01-27T09:58:52.922Z,7.21
2023-01-27T10:01:46.306Z,5.84
2023-01-27T10:04:22.974Z,6.74
2023-01-27T10:07:27.988Z,6.34
2023-01-27T10:10:14.030Z,5.05
2023-01-27T10:13:00.125Z,4.73
2023-01-27T10:15:56.727Z,5.45
2023-01-27T10:18:59.504Z,5.75
2023-01-27T10:21:49.524Z,5.29
2023-01-27T10:24:51.104Z,5.56
2023-01-27T10:27:22.390Z,7.89
2023-01-27T10:30:05.331Z,6.45
2023-01-27T10:32:35.846Z,5.43
2023-01-27T10:35:06.132Z,6.87
2023-01-27T10:38:01.601Z,8.20
2023-01-27T10:41:02.313Z,7.41
2023-01-27T10:43:32.751Z,8.19
2023-01-27T10:46:15.444Z,6.23
2023-01-27T10:49:06.035Z,6.88
2023-01-27T10:51:37.612Z,5.08
2023-01-27T10:54:31.787Z,5.03
2023-01-27T10:57:07.240Z,5.58
2023-01-27T10:59:44.258Z,6.39
2023-01-27T11:02:24.390Z,6.25
2023-01-27T11:04:59.398Z,7.27
2023-01-27T11:07:27.212Z,6.04
2023-01-27T11:09:57.862Z,6.60
2023-01-27T11:12:41.211Z,6.05
2023-01-27T11:15:31.527Z,6.78
2023-01-27T11:18:31.199Z,7.08
2023-01-27T11:21:07.509Z,7.76
2023-01-27T11:23:40.403Z,8.28
2023-01-27T11:26:41.639Z,7.26
2023-01-27T11:29:32.648Z,7.96
2023-01-27T11:32:19.388Z,9.16
2023-01-27T11:35:04.059Z,7.66
2023-01-27T11:37:35.540Z,7.73
2023-01-27T11:40:03.867Z,8.62
2023-01-27T11:42:34.587Z,7.65
2023-01-27T11:45:02.532Z,6.52
2023-01-27T11:47:34.917Z,7.03
2023-01-27T11:50:04.545Z,7.02
2023-01-27T11:52:32.654Z,8.22
2023-01-27T11:55:07.058Z,8.23
2023-01-27T11:57:36.565Z,7.90
2023-01-27T12:00:08.231Z,6.74
2023-01-27T12:02:43.870Z,6.71
2023-01-27T12:05:36.498Z,6.52
2023-01-27T12:08:05.215Z,5.34
2023-01-27T12:10:36.466Z,6.58
2023-01-27T12:13:18.850Z,6.35
2023-01-27T12:16:00.195Z,7.20
2023-01-27T12:18:33.223Z,6.24
2023-01-27T12:21:03.516Z,5.73
2023-01-27T12:23:40.441Z,4.90
2023-01-27T12:26:10.417Z,7.12
2023-01-27T12:28:51.196Z,6.99
2023-01-27T12:31:29.430Z,6.83
2023-01-27T12:34:12.965Z,7.02
2023-01-27T12:36:42.641Z,6.55
2023-01-27T12:39:28.704Z,6.19
2023-01-27T12:41:56.159Z,6.72
2023-01-27T12:44:23.953Z,6.59
2023-01-27T12:47:01.898Z,5.82
2023-01-27T12:49:35.514Z,5.18
2023-01-27T12:52:05.155Z,5.50
2023-01-27T12:54:33.153Z,6.01
2023-01-27T12:57:04.082Z,6.11
2023-01-27T12:59:31.649Z,5.71
2023-01-27T13:02:22.654Z,6.08
2023-01-27T13:04:57.094Z,6.57
2023-01-27T13:07:30.697Z,5.76
2023-01-27T13:10:03.854Z,5.78
2023-01-27T13:12:38.078Z,5.17
2023-01-27T13:15:14.649Z,6.23
2023-01-27T13:17:53.406Z,6.48
2023-01-27T13:20:24.711Z,7.33
2023-01-27T13:23:03.958Z,6.80
2023-01-27T13:25:50.481Z,6.35
2023-01-27T13:28:23.315Z,6.60
2023-01-27T13:30:54.206Z,7.12
2023-01-27T13:33:45.594Z,7.24
2023-01-27T13:36:25.399Z,6.61
2023-01-27T13:39:01.548Z,6.88
2023-01-27T13:41:39.727Z,7.66
2023-01-27T13:44:16.103Z,7.40
2023-01-27T13:46:44.862Z,7.65
2023-01-27T13:49:37.035Z,7.49
2023-01-27T13:52:07.955Z,7.38
2023-01-27T13:54:35.698Z,7.56
2023-01-27T13:57:06.039Z,6.93
2023-01-27T13:59:45.500Z,7.51
2023-01-27T14:02:34.899Z,7.71
2023-01-27T14:05:33.330Z,7.95
2023-01-27T14:08:01.190Z,6.96
2023-01-27T14:10:35.679Z,6.67
2023-01-27T14:13:21.541Z,6.29
2023-01-27T14:16:02.479Z,6.79
2023-01-27T14:18:35.610Z,6.22
2023-01-27T14:21:34.845Z,6.09
2023-01-27T14:24:27.697Z,7.00
2023-01-27T14:27:16.191Z,7.80
2023-01-27T14:30:08.392Z,7.23
2023-01-27T14:32:45.401Z,6.84
2023-01-27T14:36:01.105Z,6.38
2023-01-27T14:38:34.291Z,5.55
2023-01-27T14:41:16.936Z,6.27
2023-01-27T14:43:50.330Z,6.82
2023-01-27T14:46:21.896Z,6.30
2023-01-27T14:49:12.148Z,5.86
2023-01-27T14:51:47.654Z,5.87
2023-01-27T14:54:30.270Z,6.66
2023-01-27T14:57:05.716Z,6.60
2023-01-27T14:59:53.573Z,7.00
2023-01-27T15:02:59.439Z,6.93
2023-01-27T15:05:36.970Z,7.28
2023-01-27T15:08:16.459Z,6.80
2023-01-27T15:10:54.284Z,7.61
2023-01-27T15:13:40.784Z,8.11
2023-01-27T15:16:42.166Z,8.65
2023-01-27T15:19:37.901Z,7.05
2023-01-27T15:22:17.819Z,8.28
2023-01-27T15:24:59.315Z,6.85
2023-01-27T15:27:27.570Z,6.75
2023-01-27T15:29:55.182Z,6.74
2023-01-27T15:32:27.610Z,6.37
2023-01-27T15:35:24.682Z,6.98
2023-01-27T15:38:08.737Z,7.59
2023-01-27T15:40:56.320Z,7.24
2023-01-27T15:43:25.391Z,7.27
2023-01-27T15:45:56.702Z,8.23
2023-01-27T15:48:30.109Z,7.04
2023-01-27T15:51:04.727Z,6.55
2023-01-27T15:53:34.111Z,7.93
2023-01-27T15:56:02.868Z,8.11
2023-01-27T15:58:36.162Z,8.17
2023-01-27T16:01:07.295Z,7.64
2023-01-27T16:03:48.119Z,6.49
2023-01-27T16:06:24.148Z,4.22
2023-01-27T16:08:56.689Z,6.38
2023-01-27T16:11:41.131Z,4.95
2023-01-27T16:14:11.885Z,5.34
2023-01-27T16:16:40.780Z,4.04
2023-01-27T16:19:11.343Z,4.55
2023-01-27T16:21:52.968Z,6.91
2023-01-27T16:24:28.599Z,6.41
2023-01-27T16:27:14.767Z,7.67
2023-01-27T16:29:47.782Z,5.16
2023-01-27T16:32:20.469Z,6.69
2023-01-27T16:34:52.007Z,7.84
2023-01-27T16:37:24.493Z,6.17
2023-01-27T16:40:08.439Z,5.34
2023-01-27T16:42:57.599Z,8.24
2023-01-27T16:45:42.197Z,6.59
2023-01-27T16:48:38.566Z,6.96
2023-01-27T16:51:08.014Z,8.75
2023-01-27T16:53:35.982Z,9.31
2023-01-27T16:56:08.029Z,6.70
2023-01-27T16:58:46.491Z,4.87
2023-01-27T17:01:22.146Z,5.18
2023-01-27T17:03:52.747Z,6.36
2023-01-27T17:06:29.729Z,8.11
2023-01-27T17:08:57.483Z,4.24
2023-01-27T17:11:32.906Z,3.52
2023-01-27T17:14:02.837Z,5.97
2023-01-27T17:16:35.400Z,8.03
2023-01-27T17:19:33.035Z,6.06
2023-01-27T17:22:07.526Z,4.71
2023-01-27T17:24:38.857Z,7.45
2023-01-27T17:27:12.954Z,7.21
2023-01-27T17:29:43.113Z,5.89
2023-01-27T17:32:21.493Z,5.76
2023-01-27T17:34:51.124Z,7.51
2023-01-27T17:37:21.133Z,7.46
2023-01-27T17:39:54.843Z,8.12
2023-01-27T17:42:25.284Z,8.13
2023-01-27T17:44:54.372Z,7.98
2023-01-27T17:47:22.706Z,7.35
2023-01-27T17:49:51.699Z,7.20
2023-01-27T17:52:24.896Z,6.97
2023-01-27T17:54:53.386Z,6.15
2023-01-27T17:57:32.817Z,4.61
2023-01-27T18:00:21.896Z,4.21
2023-01-27T18:02:59.158Z,3.44
2023-01-27T18:05:29.671Z,3.89
2023-01-27T18:07:57.987Z,3.20
2023-01-27T18:10:40.922Z,3.12
2023-01-27T18:13:18.247Z,2.69
2023-01-27T18:15:49.912Z,3.00
2023-01-27T18:18:28.269Z,2.60
2023-01-27T18:21:04.079Z,2.89
2023-01-27T18:23:35.583Z,2.81
2023-01-27T18:26:13.409Z,2.03
2023-01-27T18:28:41.675Z,2.42
2023-01-27T18:31:18.025Z,3.37
2023-01-27T18:33:57.509Z,2.58
2023-01-27T18:36:35.147Z,3.09
2023-01-27T18:39:24.547Z,2.64
2023-01-27T18:41:52.281Z,2.90
2023-01-27T18:44:27.324Z,2.95
2023-01-27T18:46:56.756Z,2.43
2023-01-27T18:49:25.546Z,2.21
2023-01-27T18:51:53.755Z,4.20
2023-01-27T18:54:21.851Z,4.83
2023-01-27T18:56:50.440Z,3.54
2023-01-27T18:59:21.458Z,2.79
2023-01-27T19:01:49.745Z,4.06
2023-01-27T19:04:18.609Z,3.21
2023-01-27T19:06:48.028Z,3.35
2023-01-27T19:09:16.385Z,3.37
2023-01-27T19:11:45.356Z,3.32
2023-01-27T19:14:14.104Z,2.39
2023-01-27T19:16:47.257Z,4.21
2023-01-27T19:19:17.145Z,3.44
2023-01-27T19:21:45.667Z,3.96
2023-01-27T19:24:14.245Z,3.43
2023-01-27T19:26:44.305Z,5.42
2023-01-27T19:29:12.681Z,5.24
2023-01-27T19:31:41.499Z,4.52
2023-01-27T19:34:11.645Z,6.78
2023-01-27T19:36:45.898Z,5.72
2023-01-27T19:39:18.479Z,6.43
2023-01-27T19:41:46.997Z,7.71
2023-01-27T19:44:16.565Z,4.37
2023-01-27T19:46:45.059Z,4.50
2023-01-27T19:49:18.025Z,5.42
2023-01-27T19:51:47.666Z,6.68
2023-01-27T19:54:17.453Z,7.86
2023-01-27T19:56:47.193Z,6.65
2023-01-27T19:59:16.301Z,4.18
2023-01-27T20:01:45.982Z,6.81
2023-01-27T20:04:15.127Z,6.06
2023-01-27T20:06:42.955Z,3.34
2023-01-27T20:09:12.085Z,4.01
2023-01-27T20:11:43.222Z,5.32
2023-01-27T20:14:16.975Z,4.89
2023-01-27T20:16:47.327Z,5.55
2023-01-27T20:19:16.914Z,5.29
2023-01-27T20:21:47.194Z,3.70
2023-01-27T20:24:17.525Z,2.90
2023-01-27T20:26:46.572Z,2.78
2023-01-27T20:29:16.572Z,4.29
2023-01-27T20:31:45.245Z,5.12
2023-01-27T20:34:14.277Z,4.97
2023-01-27T20:36:43.205Z,6.75
2023-01-27T20:39:13.679Z,5.49
2023-01-27T20:41:43.780Z,4.71
2023-01-27T20:44:12.941Z,4.10
2023-01-27T20:46:42.398Z,3.06
2023-01-27T20:49:12.248Z,5.63
2023-01-27T20:51:40.869Z,5.85
2023-01-27T20:54:09.090Z,4.50
2023-01-27T20:56:37.365Z,5.50
2023-01-27T20:59:07.095Z,6.64
2023-01-27T21:01:36.097Z,5.59
2023-01-27T21:04:05.147Z,5.82
2023-01-27T21:06:33.314Z,6.96
2023-01-27T21:09:03.219Z,3.74
2023-01-27T21:11:32.265Z,3.39
2023-01-27T21:14:00.136Z,5.54
2023-01-27T21:16:28.368Z,3.22
2023-01-27T21:18:56.575Z,2.98
2023-01-27T21:21:27.340Z,3.51
2023-01-27T21:23:56.409Z,4.26
2023-01-27T21:26:25.689Z,5.53
2023-01-27T21:28:53.561Z,6.00
2023-01-27T21:31:22.368Z,7.33
2023-01-27T21:33:51.161Z,3.04
2023-01-27T21:36:19.089Z,3.62
2023-01-27T21:38:47.489Z,4.48
2023-01-27T21:41:44.930Z,3.03
2023-01-27T21:44:51.288Z,4.24
2023-01-27T21:47:20.188Z,5.16
2023-01-27T21:50:04.147Z,5.87
2023-01-27T21:52:33.631Z,4.99
2023-01-27T21:55:05.537Z,6.10
2023-01-27T21:57:34.496Z,5.12
2023-01-27T22:00:02.326Z,4.99
2023-01-27T22:03:03.011Z,6.48
2023-01-27T22:05:32.500Z,4.63
2023-01-27T22:08:01.991Z,6.01
2023-01-27T22:10:30.371Z,6.63
2023-01-27T22:12:59.834Z,7.51
2023-01-27T22:15:28.933Z,6.54
2023-01-27T22:17:57.600Z,7.31
2023-01-27T22:20:25.940Z,6.96
2023-01-27T22:22:53.710Z,6.03
2023-01-27T22:25:21.676Z,6.12
2023-01-27T22:27:49.378Z,6.97
2023-01-27T22:30:19.812Z,7.04
2023-01-27T22:32:47.600Z,7.26
2023-01-27T22:35:17.757Z,7.18
2023-01-27T22:37:46.005Z,6.85
2023-01-27T22:40:13.900Z,6.88
2023-01-27T22:42:41.545Z,6.88
2023-01-27T22:45:10.017Z,6.27
2023-01-27T22:47:37.458Z,5.47
2023-01-27T22:50:05.470Z,6.58
2023-01-27T22:52:36.280Z,5.87
2023-01-27T22:55:05.238Z,7.42
2023-01-27T22:57:33.195Z,6.25
2023-01-27T23:00:00.637Z,6.82
2023-01-27T23:02:29.923Z,4.39
2023-01-27T23:04:58.455Z,7.35
2023-01-27T23:07:26.283Z,7.37
2023-01-27T23:09:53.718Z,5.24
2023-01-27T23:12:21.424Z,4.57
2023-01-27T23:14:48.846Z,6.71
2023-01-27T23:17:16.268Z,7.36
2023-01-27T23:19:44.018Z,6.79
2023-01-27T23:22:11.784Z,7.39
2023-01-27T23:24:39.660Z,6.36
2023-01-27T23:27:07.330Z,6.12
2023-01-27T23:29:34.749Z,5.99
2023-01-27T23:32:02.236Z,6.91
2023-01-27T23:34:30.983Z,4.93
2023-01-27T23:36:58.433Z,4.89
2023-01-27T23:39:25.843Z,5.51
2023-01-27T23:41:53.549Z,6.92
2023-01-27T23:44:21.029Z,5.16
2023-01-27T23:46:48.446Z,4.18
2023-01-27T23:49:16.168Z,3.56
2023-01-27T23:51:43.571Z,3.76
2023-01-27T23:54:11.114Z,4.62
2023-01-27T23:56:38.813Z,4.90
2023-01-27T23:59:06.273Z,4.85
